Time;durP1;ratioP1;P1;durP2;ratioP2;P2;SDS_P1;SDS_P2;PMS_P1;PMS_P2;Temp;Humidity;BMP_temperature;BMP_pressure;BME280_temperature;BME280_humidity;BME280_pressure;Samples;Min_cycle;Max_cycle;Signal;HPM_P1;HPM_P2
2021/06/12 00:00:50;;;;;;;16.27;7.20;;;;;;;;;;4438419;32;20167;-74
2021/06/12 00:03:15;;;;;;;16.80;6.37;;;;;;;;;;4436754;32;20207;-74
2021/06/12 00:05:40;;;;;;;14.48;6.43;;;;;;;;;;4438729;32;20134;-75
2021/06/12 00:08:05;;;;;;;15.60;6.32;;;;;;;;;;4436999;32;20138;-74
2021/06/12 00:10:35;;;;;;;15.38;5.68;;;;;;;;;;4439125;32;20252;-75
2021/06/12 00:13:01;;;;;;;14.52;6.30;;;;;;;;;;4436671;32;20129;-75
2021/06/12 00:15:26;;;;;;;14.23;6.75;;;;;;;;;;4436824;32;20171;-74
2021/06/12 00:17:52;;;;;;;15.57;6.68;;;;;;;;;;4437197;32;20577;-75
2021/06/12 00:20:19;;;;;;;14.85;6.20;;;;;;;;;;4422448;32;20192;-74
2021/06/12 00:22:44;;;;;;;17.15;7.00;;;;;;;;;;4436841;32;20442;-75
2021/06/12 00:25:10;;;;;;;14.60;5.93;;;;;;;;;;4437014;32;20141;-75
2021/06/12 00:27:39;;;;;;;13.20;5.45;;;;;;;;;;4437994;32;20606;-74
2021/06/12 00:30:04;;;;;;;13.40;5.78;;;;;;;;;;4437343;32;20126;-75
2021/06/12 00:32:29;;;;;;;12.35;6.00;;;;;;;;;;4423987;32;20192;-74
2021/06/12 00:34:54;;;;;;;13.25;6.07;;;;;;;;;;4423114;32;20219;-75
2021/06/12 00:37:20;;;;;;;15.32;6.12;;;;;;;;;;4437695;32;20167;-74
2021/06/12 00:39:45;;;;;;;14.70;5.77;;;;;;;;;;4437867;32;20276;-74
2021/06/12 00:42:10;;;;;;;14.98;5.68;;;;;;;;;;4438479;32;20293;-75
2021/06/12 00:44:35;;;;;;;10.52;5.70;;;;;;;;;;4436062;32;20350;-74
2021/06/12 00:47:00;;;;;;;14.27;6.03;;;;;;;;;;4435912;32;20134;-74
2021/06/12 00:49:25;;;;;;;15.82;5.30;;;;;;;;;;4436020;32;20903;-74
2021/06/12 00:51:51;;;;;;;13.00;6.12;;;;;;;;;;4436380;32;20618;-74
2021/06/12 00:54:16;;;;;;;15.50;6.35;;;;;;;;;;4437641;32;20178;-74
2021/06/12 00:56:41;;;;;;;17.55;5.85;;;;;;;;;;4437630;32;20138;-75
2021/06/12 00:59:06;;;;;;;11.50;5.47;;;;;;;;;;4436434;32;20240;-74
2021/06/12 01:01:31;;;;;;;15.55;6.53;;;;;;;;;;4421785;32;20199;-75
2021/06/12 01:03:59;;;;;;;15.43;7.03;;;;;;;;;;4438074;32;20521;-74
2021/06/12 01:06:24;;;;;;;12.63;5.60;;;;;;;;;;4435691;32;20295;-74
2021/06/12 01:08:50;;;;;;;15.13;5.70;;;;;;;;;;4437774;32;20171;-74
2021/06/12 01:11:15;;;;;;;16.10;6.80;;;;;;;;;;4437401;32;20287;-75
2021/06/12 01:13:59;;;;;;;16.87;7.30;;;;;;;;;;4421572;32;20158;-75
2021/06/12 01:16:30;;;;;;;13.98;7.25;;;;;;;;;;4435360;32;20141;-74
2021/06/12 01:18:57;;;;;;;16.02;6.37;;;;;;;;;;4437489;32;20260;-73
2021/06/12 01:21:25;;;;;;;16.17;7.35;;;;;;;;;;4436104;32;20130;-75
2021/06/12 01:24:09;;;;;;;14.60;6.47;;;;;;;;;;4422255;32;20179;-74
2021/06/12 01:26:40;;;;;;;16.10;7.68;;;;;;;;;;4435975;32;20221;-74
2021/06/12 01:29:21;;;;;;;13.45;7.43;;;;;;;;;;4435634;32;20176;-74
2021/06/12 01:31:48;;;;;;;13.68;7.40;;;;;;;;;;4436652;32;20133;-74
2021/06/12 01:34:13;;;;;;;20.35;7.25;;;;;;;;;;4435773;32;20129;-74
2021/06/12 01:36:39;;;;;;;17.15;7.87;;;;;;;;;;4435794;32;20678;-74
2021/06/12 01:39:04;;;;;;;17.23;7.75;;;;;;;;;;4421608;32;20627;-74
2021/06/12 01:41:31;;;;;;;14.70;7.22;;;;;;;;;;4437291;32;20486;-75
2021/06/12 01:43:57;;;;;;;12.85;7.37;;;;;;;;;;4421470;32;20154;-74
2021/06/12 01:46:24;;;;;;;20.20;6.75;;;;;;;;;;4437957;32;20180;-74
2021/06/12 01:48:50;;;;;;;17.40;7.55;;;;;;;;;;4421382;32;20494;-74
2021/06/12 01:51:15;;;;;;;15.80;8.15;;;;;;;;;;4435426;32;20141;-74
2021/06/12 01:53:41;;;;;;;15.55;7.47;;;;;;;;;;4437692;32;20129;-74
2021/06/12 01:56:07;;;;;;;21.40;7.93;;;;;;;;;;4436305;32;20181;-74
2021/06/12 01:58:34;;;;;;;21.73;8.68;;;;;;;;;;4437090;32;20160;-76
2021/06/12 02:01:00;;;;;;;15.95;8.30;;;;;;;;;;4435281;32;20477;-74
2021/06/12 02:03:25;;;;;;;15.93;8.48;;;;;;;;;;4435355;32;20185;-74
2021/06/12 02:05:51;;;;;;;18.12;8.30;;;;;;;;;;4421293;32;20191;-74
2021/06/12 02:08:16;;;;;;;18.33;7.87;;;;;;;;;;4435680;32;20456;-74
2021/06/12 02:10:43;;;;;;;18.62;8.88;;;;;;;;;;4437390;32;20149;-74
2021/06/12 02:13:09;;;;;;;17.02;8.18;;;;;;;;;;4421333;32;20634;-74
2021/06/12 02:15:35;;;;;;;18.40;8.25;;;;;;;;;;4435774;32;20141;-74
2021/06/12 02:18:05;;;;;;;17.37;7.60;;;;;;;;;;4437284;32;20145;-73
2021/06/12 02:20:32;;;;;;;17.20;7.95;;;;;;;;;;4435668;32;20125;-74
2021/06/12 02:22:58;;;;;;;14.43;8.52;;;;;;;;;;4435695;32;20172;-75
2021/06/12 02:25:23;;;;;;;17.05;8.55;;;;;;;;;;4436208;32;20538;-75
2021/06/12 02:27:51;;;;;;;19.05;8.50;;;;;;;;;;4435249;32;20455;-75
2021/06/12 02:30:19;;;;;;;22.58;8.77;;;;;;;;;;4438031;32;20585;-75
2021/06/12 02:32:45;;;;;;;22.45;9.75;;;;;;;;;;4439338;32;20195;-75
2021/06/12 02:35:11;;;;;;;16.52;9.00;;;;;;;;;;4424164;32;20161;-74
2021/06/12 02:37:40;;;;;;;23.12;9.10;;;;;;;;;;4425177;32;20157;-74
2021/06/12 02:40:06;;;;;;;19.42;9.18;;;;;;;;;;4439795;32;20142;-75
2021/06/12 02:42:31;;;;;;;22.50;10.10;;;;;;;;;;4438365;32;20138;-75
2021/06/12 02:44:56;;;;;;;19.08;9.48;;;;;;;;;;4440398;32;20133;-75
2021/06/12 02:47:22;;;;;;;22.73;10.20;;;;;;;;;;4440259;32;20133;-75
2021/06/12 02:49:48;;;;;;;17.40;8.88;;;;;;;;;;4438085;32;20220;-74
2021/06/12 02:52:17;;;;;;;18.33;9.52;;;;;;;;;;4438606;32;20138;-74
2021/06/12 02:54:44;;;;;;;18.17;8.88;;;;;;;;;;4438603;32;20187;-74
2021/06/12 02:57:09;;;;;;;22.35;10.20;;;;;;;;;;4425755;32;20239;-74
2021/06/12 02:59:35;;;;;;;20.62;9.10;;;;;;;;;;4439254;32;20299;-74
2021/06/12 03:02:01;;;;;;;21.73;9.85;;;;;;;;;;4437828;32;20133;-74
2021/06/12 03:04:26;;;;;;;25.37;10.55;;;;;;;;;;4437880;32;20126;-74
2021/06/12 03:06:52;;;;;;;25.08;9.85;;;;;;;;;;4423741;32;20161;-74
2021/06/12 03:09:18;;;;;;;17.52;8.85;;;;;;;;;;4437586;32;20138;-74
2021/06/12 03:11:44;;;;;;;21.17;9.65;;;;;;;;;;4439145;32;20142;-74
2021/06/12 03:14:11;;;;;;;17.25;9.52;;;;;;;;;;4438058;32;20154;-74
2021/06/12 03:16:38;;;;;;;15.43;7.68;;;;;;;;;;4438611;32;20219;-74
2021/06/12 03:19:03;;;;;;;17.20;7.90;;;;;;;;;;4439296;32;20160;-74
2021/06/12 03:21:29;;;;;;;20.37;8.80;;;;;;;;;;4438000;32;20137;-75
2021/06/12 03:23:55;;;;;;;15.07;7.97;;;;;;;;;;4439455;32;20133;-75
2021/06/12 03:26:21;;;;;;;22.67;8.23;;;;;;;;;;4423343;32;20268;-75
2021/06/12 03:28:47;;;;;;;14.05;7.93;;;;;;;;;;4423360;32;20173;-74
2021/06/12 03:31:13;;;;;;;15.73;8.13;;;;;;;;;;4439134;32;20625;-75
2021/06/12 03:33:38;;;;;;;15.80;8.25;;;;;;;;;;4425013;32;20169;-75
2021/06/12 03:36:04;;;;;;;12.57;7.97;;;;;;;;;;4437183;32;20125;-75
2021/06/12 03:38:29;;;;;;;15.10;8.95;;;;;;;;;;4438150;32;20145;-75
2021/06/12 03:40:55;;;;;;;16.12;8.13;;;;;;;;;;4438949;32;20160;-75
2021/06/12 03:43:21;;;;;;;14.18;7.97;;;;;;;;;;4437850;32;20138;-74
2021/06/12 03:45:47;;;;;;;15.40;8.45;;;;;;;;;;4438054;32;20450;-74
2021/06/12 03:48:12;;;;;;;12.77;8.57;;;;;;;;;;4437651;32;20271;-75
2021/06/12 03:50:38;;;;;;;11.40;7.18;;;;;;;;;;4437656;32;20138;-75
2021/06/12 03:53:04;;;;;;;15.35;8.48;;;;;;;;;;4437692;32;20599;-74
2021/06/12 03:55:30;;;;;;;14.10;8.52;;;;;;;;;;4423194;32;20650;-74
2021/06/12 03:57:55;;;;;;;11.63;7.30;;;;;;;;;;4437573;32;20181;-74
2021/06/12 04:00:20;;;;;;;12.57;7.73;;;;;;;;;;4439206;32;20134;-74
2021/06/12 04:02:46;;;;;;;13.25;7.35;;;;;;;;;;4424900;32;20315;-74
2021/06/12 04:05:11;;;;;;;15.10;7.72;;;;;;;;;;4437866;32;20200;-75
2021/06/12 04:07:37;;;;;;;12.18;7.12;;;;;;;;;;4437369;32;20204;-75
2021/06/12 04:10:03;;;;;;;12.30;6.68;;;;;;;;;;4439047;32;20129;-75
2021/06/12 04:12:28;;;;;;;11.73;6.70;;;;;;;;;;4436873;32;20502;-75
2021/06/12 04:14:53;;;;;;;16.42;7.82;;;;;;;;;;4436869;32;20168;-74
2021/06/12 04:17:18;;;;;;;11.77;7.00;;;;;;;;;;4423641;32;20343;-74
2021/06/12 04:19:43;;;;;;;14.23;6.85;;;;;;;;;;4437610;32;20236;-74
2021/06/12 04:22:08;;;;;;;13.95;6.53;;;;;;;;;;4438796;32;20129;-74
2021/06/12 04:24:34;;;;;;;17.35;7.00;;;;;;;;;;4438328;32;20229;-74
2021/06/12 04:26:59;;;;;;;10.32;6.28;;;;;;;;;;4437967;32;20137;-74
2021/06/12 04:29:24;;;;;;;13.10;6.55;;;;;;;;;;4436559;32;20137;-74
2021/06/12 04:31:50;;;;;;;9.70;6.10;;;;;;;;;;4439004;32;20569;-74
2021/06/12 04:34:15;;;;;;;11.95;6.37;;;;;;;;;;4423570;32;20288;-74
2021/06/12 04:36:40;;;;;;;11.70;6.20;;;;;;;;;;4422521;32;20252;-74
2021/06/12 04:39:05;;;;;;;13.07;6.22;;;;;;;;;;4436307;32;20256;-74
2021/06/12 04:41:31;;;;;;;13.27;6.15;;;;;;;;;;4438057;32;20137;-74
2021/06/12 04:43:56;;;;;;;15.60;6.70;;;;;;;;;;4437992;32;20187;-74
2021/06/12 04:46:21;;;;;;;14.45;6.47;;;;;;;;;;4438542;32;20152;-74
2021/06/12 04:48:46;;;;;;;14.32;6.20;;;;;;;;;;4437007;32;20244;-74
2021/06/12 04:51:11;;;;;;;10.77;6.20;;;;;;;;;;4435693;32;20134;-74
2021/06/12 04:53:37;;;;;;;12.32;6.18;;;;;;;;;;4436705;32;20279;-74
2021/06/12 04:56:02;;;;;;;10.18;5.35;;;;;;;;;;4436680;32;20130;-74
2021/06/12 04:58:27;;;;;;;8.45;5.68;;;;;;;;;;4421919;32;20268;-74
2021/06/12 05:00:53;;;;;;;11.80;5.83;;;;;;;;;;4436276;32;20160;-74
2021/06/12 05:03:21;;;;;;;11.35;5.30;;;;;;;;;;4437470;32;20259;-74
2021/06/12 05:05:47;;;;;;;10.75;5.30;;;;;;;;;;4436032;32;20243;-74
2021/06/12 05:08:12;;;;;;;11.52;5.53;;;;;;;;;;4437454;32;20194;-74
2021/06/12 05:10:37;;;;;;;9.23;4.80;;;;;;;;;;4437292;32;20137;-74
2021/06/12 05:13:02;;;;;;;6.67;4.50;;;;;;;;;;4422590;32;20260;-74
2021/06/12 05:15:29;;;;;;;6.37;3.87;;;;;;;;;;4437465;32;20229;-75
2021/06/12 05:17:56;;;;;;;7.00;4.07;;;;;;;;;;4437272;32;20252;-74
2021/06/12 05:20:21;;;;;;;8.82;3.72;;;;;;;;;;4437080;32;20134;-74
2021/06/12 05:22:48;;;;;;;6.70;4.15;;;;;;;;;;4435698;32;20197;-73
2021/06/12 05:25:13;;;;;;;8.15;4.20;;;;;;;;;;4435632;32;20206;-74
2021/06/12 05:27:38;;;;;;;10.45;3.90;;;;;;;;;;4437505;32;20569;-74
2021/06/12 05:30:04;;;;;;;8.00;4.27;;;;;;;;;;4436189;32;20152;-75
2021/06/12 05:32:29;;;;;;;9.90;4.12;;;;;;;;;;4435775;32;20224;-75
2021/06/12 05:34:56;;;;;;;8.20;3.42;;;;;;;;;;4435422;32;20130;-74
2021/06/12 05:37:21;;;;;;;6.45;3.53;;;;;;;;;;4435765;32;20614;-75
2021/06/12 05:39:46;;;;;;;10.13;4.60;;;;;;;;;;4436974;32;20161;-75
2021/06/12 05:42:12;;;;;;;6.90;3.47;;;;;;;;;;4435434;32;20196;-74
2021/06/12 05:44:37;;;;;;;5.97;3.15;;;;;;;;;;4437063;32;20152;-74
2021/06/12 05:47:02;;;;;;;7.28;3.40;;;;;;;;;;4435594;32;20539;-75
2021/06/12 05:49:27;;;;;;;6.72;3.20;;;;;;;;;;4435285;32;20205;-74
2021/06/12 05:51:53;;;;;;;6.87;2.80;;;;;;;;;;4436836;32;20137;-74
2021/06/12 05:54:18;;;;;;;9.05;3.35;;;;;;;;;;4436998;32;20229;-74
2021/06/12 05:56:43;;;;;;;6.95;3.17;;;;;;;;;;4435755;32;20145;-74
2021/06/12 05:59:08;;;;;;;5.97;2.83;;;;;;;;;;4437027;32;20142;-74
2021/06/12 06:01:33;;;;;;;8.07;3.10;;;;;;;;;;4436720;32;20466;-73
2021/06/12 06:03:58;;;;;;;9.40;3.10;;;;;;;;;;4437259;32;20232;-75
2021/06/12 06:06:24;;;;;;;6.53;2.80;;;;;;;;;;4424289;32;20705;-76
2021/06/12 06:08:49;;;;;;;6.50;3.40;;;;;;;;;;4425909;32;20283;-76
2021/06/12 06:11:14;;;;;;;6.15;2.95;;;;;;;;;;4438329;32;20129;-76
2021/06/12 06:13:40;;;;;;;6.12;2.95;;;;;;;;;;4439061;32;20165;-76
2021/06/12 06:16:05;;;;;;;11.15;3.50;;;;;;;;;;4439510;32;20159;-77
2021/06/12 06:18:30;;;;;;;6.82;2.80;;;;;;;;;;4439252;32;20129;-74
2021/06/12 06:20:56;;;;;;;8.05;2.95;;;;;;;;;;4438126;32;20554;-74
2021/06/12 06:23:21;;;;;;;4.97;2.58;;;;;;;;;;4425822;32;20240;-74
2021/06/12 06:25:46;;;;;;;6.82;2.70;;;;;;;;;;4425360;32;20157;-75
2021/06/12 06:28:11;;;;;;;5.85;2.75;;;;;;;;;;4438726;32;20192;-74
2021/06/12 06:30:37;;;;;;;8.20;2.90;;;;;;;;;;4438188;32;20526;-74
2021/06/12 06:33:02;;;;;;;5.10;2.60;;;;;;;;;;4438493;32;20445;-75
2021/06/12 06:35:27;;;;;;;5.32;2.50;;;;;;;;;;4438051;32;20130;-74
2021/06/12 06:37:52;;;;;;;7.22;2.97;;;;;;;;;;4438418;32;20180;-74
2021/06/12 06:40:18;;;;;;;6.62;2.50;;;;;;;;;;4439017;32;20220;-75
2021/06/12 06:42:43;;;;;;;8.23;2.50;;;;;;;;;;4437703;32;20623;-76
2021/06/12 06:45:09;;;;;;;4.95;2.42;;;;;;;;;;4439233;32;20146;-75
2021/06/12 06:47:34;;;;;;;10.77;3.35;;;;;;;;;;4438984;32;20190;-75
2021/06/12 06:49:59;;;;;;;7.15;2.80;;;;;;;;;;4437616;32;20149;-76
2021/06/12 06:52:25;;;;;;;5.07;2.30;;;;;;;;;;4437882;32;20517;-76
2021/06/12 06:54:50;;;;;;;4.50;2.40;;;;;;;;;;4439439;32;20229;-75
2021/06/12 06:57:15;;;;;;;8.73;2.67;;;;;;;;;;4438035;32;20253;-76
2021/06/12 06:59:41;;;;;;;6.25;2.53;;;;;;;;;;4438333;32;20133;-76
2021/06/12 07:02:07;;;;;;;7.05;2.50;;;;;;;;;;4438956;32;20169;-75
2021/06/12 07:04:32;;;;;;;5.10;2.20;;;;;;;;;;4439288;32;20130;-75
2021/06/12 07:06:58;;;;;;;3.70;2.00;;;;;;;;;;4437481;32;20180;-75
2021/06/12 07:09:24;;;;;;;5.50;2.08;;;;;;;;;;4437194;32;20471;-76
2021/06/12 07:11:50;;;;;;;6.53;2.60;;;;;;;;;;4436753;32;20611;-76
2021/06/12 07:14:15;;;;;;;8.95;2.90;;;;;;;;;;4437098;32;20134;-76
2021/06/12 07:16:40;;;;;;;7.00;2.80;;;;;;;;;;4425059;32;20542;-75
2021/06/12 07:19:05;;;;;;;4.90;2.20;;;;;;;;;;4439087;32;20172;-75
2021/06/12 07:21:31;;;;;;;7.20;2.67;;;;;;;;;;4438177;32;20164;-75
2021/06/12 07:23:56;;;;;;;6.70;2.67;;;;;;;;;;4438678;32;20270;-74
2021/06/12 07:26:21;;;;;;;5.43;2.60;;;;;;;;;;4438986;32;20145;-75
2021/06/12 07:28:46;;;;;;;6.72;2.67;;;;;;;;;;4424806;32;20214;-74
2021/06/12 07:31:12;;;;;;;9.15;2.70;;;;;;;;;;4422973;32;20188;-74
2021/06/12 07:33:37;;;;;;;4.80;2.60;;;;;;;;;;4438625;32;20180;-73
2021/06/12 07:36:02;;;;;;;6.97;3.00;;;;;;;;;;4436899;32;20201;-74
2021/06/12 07:38:29;;;;;;;7.15;2.35;;;;;;;;;;4423081;32;20184;-74
2021/06/12 07:40:54;;;;;;;5.97;2.58;;;;;;;;;;4438799;32;20546;-74
2021/06/12 07:43:19;;;;;;;6.15;2.40;;;;;;;;;;4438599;32;20197;-74
2021/06/12 07:45:46;;;;;;;6.43;2.40;;;;;;;;;;4438378;32;20175;-73
2021/06/12 07:48:11;;;;;;;4.62;1.98;;;;;;;;;;4436508;32;20172;-73
2021/06/12 07:50:37;;;;;;;7.45;2.83;;;;;;;;;;4436603;32;20164;-74
2021/06/12 07:53:02;;;;;;;5.93;2.20;;;;;;;;;;4438293;32;20550;-74
2021/06/12 07:55:27;;;;;;;4.30;1.98;;;;;;;;;;4436808;32;20555;-73
2021/06/12 07:57:53;;;;;;;8.57;2.60;;;;;;;;;;4423726;32;20172;-73
2021/06/12 08:00:18;;;;;;;5.18;2.28;;;;;;;;;;4435950;32;20137;-73
2021/06/12 08:02:44;;;;;;;7.65;2.92;;;;;;;;;;4436427;32;20134;-74
2021/06/12 08:05:09;;;;;;;8.20;2.50;;;;;;;;;;4436248;32;20486;-75
2021/06/12 08:07:34;;;;;;;6.62;2.30;;;;;;;;;;4437603;32;20145;-74
2021/06/12 08:10:02;;;;;;;6.50;2.47;;;;;;;;;;4437474;32;20133;-75
2021/06/12 08:12:28;;;;;;;6.68;2.40;;;;;;;;;;4437517;32;20442;-75
2021/06/12 08:14:53;;;;;;;6.75;2.47;;;;;;;;;;4437713;32;20190;-76
2021/06/12 08:17:18;;;;;;;9.90;3.00;;;;;;;;;;4437373;32;20141;-75
2021/06/12 08:19:44;;;;;;;8.35;2.78;;;;;;;;;;4422261;32;20162;-75
2021/06/12 08:22:11;;;;;;;5.07;2.20;;;;;;;;;;4421883;32;20161;-75
2021/06/12 08:24:36;;;;;;;12.37;2.70;;;;;;;;;;4435598;32;20181;-75
2021/06/12 08:27:02;;;;;;;8.48;2.35;;;;;;;;;;4422760;32;20196;-76
2021/06/12 08:29:27;;;;;;;8.00;2.50;;;;;;;;;;4435725;32;20165;-75
2021/06/12 08:31:52;;;;;;;7.40;2.42;;;;;;;;;;4435098;32;20270;-74
2021/06/12 08:34:18;;;;;;;6.62;2.25;;;;;;;;;;4434842;32;20157;-74
2021/06/12 08:36:43;;;;;;;4.18;2.25;;;;;;;;;;4436116;32;20220;-75
2021/06/12 08:39:08;;;;;;;4.97;2.17;;;;;;;;;;4420555;32;20674;-75
2021/06/12 08:41:34;;;;;;;5.68;2.28;;;;;;;;;;4421955;32;20169;-75
2021/06/12 08:44:00;;;;;;;4.80;2.40;;;;;;;;;;4435023;32;20153;-75
2021/06/12 08:46:26;;;;;;;8.68;2.33;;;;;;;;;;4435510;32;20141;-74
2021/06/12 08:48:51;;;;;;;6.75;2.50;;;;;;;;;;4420003;32;20197;-75
2021/06/12 08:51:16;;;;;;;6.93;2.40;;;;;;;;;;4421816;32;20197;-75
2021/06/12 08:53:41;;;;;;;9.90;2.22;;;;;;;;;;4420047;32;20192;-75
2021/06/12 08:56:07;;;;;;;7.30;2.20;;;;;;;;;;4421536;32;20134;-75
2021/06/12 08:58:32;;;;;;;6.68;2.22;;;;;;;;;;4420573;32;20184;-75
2021/06/12 09:00:58;;;;;;;8.82;2.58;;;;;;;;;;4419988;32;20130;-76
2021/06/12 09:03:25;;;;;;;7.40;2.25;;;;;;;;;;4420089;32;20142;-76
2021/06/12 09:05:54;;;;;;;7.50;2.65;;;;;;;;;;4419385;32;20149;-75
2021/06/12 09:08:20;;;;;;;12.88;4.70;;;;;;;;;;4421433;32;20138;-75
2021/06/12 09:10:45;;;;;;;6.90;2.30;;;;;;;;;;4421151;32;20469;-75
2021/06/12 09:13:10;;;;;;;6.25;2.03;;;;;;;;;;4419582;32;20253;-75
2021/06/12 09:15:36;;;;;;;10.73;2.33;;;;;;;;;;4420341;32;20267;-76
2021/06/12 09:18:01;;;;;;;6.62;2.50;;;;;;;;;;4421172;32;20138;-76
2021/06/12 09:20:26;;;;;;;7.50;2.45;;;;;;;;;;4420981;32;20131;-76
2021/06/12 09:23:07;;;;;;;8.35;2.30;;;;;;;;;;4421521;32;20191;-74
2021/06/12 09:25:40;;;;;;;7.18;1.85;;;;;;;;;;4420644;32;20146;-75
2021/06/12 09:28:05;;;;;;;4.15;1.90;;;;;;;;;;4421734;32;20134;-75
2021/06/12 09:30:31;;;;;;;8.40;2.40;;;;;;;;;;4420325;32;20203;-76
2021/06/12 09:32:56;;;;;;;6.22;1.85;;;;;;;;;;4422067;32;20165;-75
2021/06/12 09:35:29;;;;;;;5.10;1.80;;;;;;;;;;4420444;32;20182;-74
2021/06/12 09:37:54;;;;;;;6.25;2.00;;;;;;;;;;4421232;32;20208;-75
2021/06/12 09:40:22;;;;;;;3.90;1.90;;;;;;;;;;4419838;32;20173;-76
2021/06/12 09:42:48;;;;;;;5.50;2.05;;;;;;;;;;4420378;32;20137;-75
2021/06/12 09:45:21;;;;;;;5.72;1.83;;;;;;;;;;4420521;32;20180;-74
2021/06/12 09:47:47;;;;;;;6.12;2.10;;;;;;;;;;4419645;32;20190;-75
2021/06/12 09:50:14;;;;;;;6.97;1.87;;;;;;;;;;4436641;32;20205;-74
2021/06/12 09:52:46;;;;;;;5.62;1.80;;;;;;;;;;4434769;32;20465;-75
2021/06/12 09:55:22;;;;;;;3.83;1.75;;;;;;;;;;4435297;32;20176;-75
2021/06/12 09:57:48;;;;;;;4.43;1.67;;;;;;;;;;4434990;32;20529;-76
2021/06/12 10:00:14;;;;;;;8.20;1.92;;;;;;;;;;4421097;32;20169;-75
2021/06/12 10:02:39;;;;;;;8.02;1.90;;;;;;;;;;4435239;32;20220;-75
2021/06/12 10:05:06;;;;;;;11.90;2.55;;;;;;;;;;4434421;32;20183;-75
2021/06/12 10:07:32;;;;;;;5.07;1.60;;;;;;;;;;4435112;32;20172;-76
2021/06/12 10:10:00;;;;;;;6.47;2.12;;;;;;;;;;4436405;32;20208;-75
2021/06/12 10:12:25;;;;;;;4.93;1.73;;;;;;;;;;4420465;32;20162;-75
2021/06/12 10:14:51;;;;;;;3.72;1.60;;;;;;;;;;4434950;32;20129;-75
2021/06/12 10:17:17;;;;;;;6.30;2.03;;;;;;;;;;4434812;32;20261;-75
2021/06/12 10:19:42;;;;;;;6.30;2.17;;;;;;;;;;4436560;32;20157;-75
2021/06/12 10:22:14;;;;;;;5.95;2.30;;;;;;;;;;4436265;32;20141;-76
2021/06/12 10:24:39;;;;;;;5.07;2.20;;;;;;;;;;4436805;32;20222;-76
2021/06/12 10:27:05;;;;;;;7.55;2.03;;;;;;;;;;4435395;32;20142;-75
2021/06/12 10:29:30;;;;;;;4.93;2.20;;;;;;;;;;4435294;32;20154;-76
2021/06/12 10:31:56;;;;;;;5.62;2.22;;;;;;;;;;4435694;32;20566;-76
2021/06/12 10:34:28;;;;;;;6.78;2.22;;;;;;;;;;4434852;32;20194;-76
2021/06/12 10:37:12;;;;;;;7.07;2.20;;;;;;;;;;4434860;32;20138;-75
2021/06/12 10:39:38;;;;;;;10.73;2.58;;;;;;;;;;4435103;32;20194;-75
2021/06/12 10:42:20;;;;;;;7.37;2.40;;;;;;;;;;4434852;32;20191;-75
2021/06/12 10:44:47;;;;;;;7.00;2.33;;;;;;;;;;4420478;32;20696;-75
2021/06/12 10:47:12;;;;;;;5.00;1.80;;;;;;;;;;4420682;32;20579;-76
2021/06/12 10:49:39;;;;;;;6.85;2.55;;;;;;;;;;4436788;32;20141;-75
2021/06/12 10:52:05;;;;;;;6.20;1.80;;;;;;;;;;4439075;32;20134;-76
2021/06/12 10:54:33;;;;;;;7.68;2.05;;;;;;;;;;4436690;32;20164;-73
2021/06/12 10:57:00;;;;;;;7.37;1.98;;;;;;;;;;4413150;32;20177;-74
2021/06/12 10:59:39;;;;;;;6.50;2.00;;;;;;;;;;4427067;32;20165;-76
2021/06/12 11:04:40;;;;;;;5.65;2.05;;;;;;;;;;4437630;32;20186;-75
2021/06/12 11:07:22;;;;;;;4.20;2.03;;;;;;;;;;4436621;32;20454;-74
2021/06/12 11:09:47;;;;;;;5.32;2.05;;;;;;;;;;4422714;32;20177;-75
2021/06/12 11:12:12;;;;;;;8.83;2.40;;;;;;;;;;4436755;32;20156;-74
2021/06/12 11:14:38;;;;;;;5.78;2.05;;;;;;;;;;4438391;32;20259;-75
2021/06/12 11:19:35;;;;;;;4.78;2.08;;;;;;;;;;4436801;32;20229;-75
2021/06/12 11:22:19;;;;;;;6.50;1.98;;;;;;;;;;4437412;32;20192;-76
2021/06/12 11:24:44;;;;;;;6.03;2.17;;;;;;;;;;4437908;32;20163;-74
2021/06/12 11:27:22;;;;;;;9.17;3.30;;;;;;;;;;4421789;32;20159;-75
2021/06/12 11:30:06;;;;;;;7.53;2.35;;;;;;;;;;4424491;32;20304;-75
2021/06/12 11:32:31;;;;;;;5.07;2.03;;;;;;;;;;4436707;32;20189;-75
2021/06/12 11:34:56;;;;;;;7.20;2.30;;;;;;;;;;4436101;32;20160;-76
2021/06/12 11:37:22;;;;;;;7.82;2.20;;;;;;;;;;4422189;32;20728;-75
2021/06/12 11:39:48;;;;;;;8.75;2.30;;;;;;;;;;4437398;32;20160;-74
2021/06/12 11:42:14;;;;;;;6.05;2.10;;;;;;;;;;4437680;32;20149;-75
2021/06/12 11:44:39;;;;;;;5.95;1.95;;;;;;;;;;4423167;32;20153;-75
2021/06/12 11:47:04;;;;;;;6.97;2.50;;;;;;;;;;4438217;32;20469;-75
2021/06/12 11:49:29;;;;;;;4.15;2.00;;;;;;;;;;4435810;32;20249;-75
2021/06/12 11:51:54;;;;;;;5.37;2.03;;;;;;;;;;4435864;32;20253;-74
2021/06/12 11:54:21;;;;;;;6.93;2.33;;;;;;;;;;4415833;32;20158;-75
2021/06/12 11:56:54;;;;;;;5.35;1.90;;;;;;;;;;4421850;32;20570;-74
2021/06/12 11:59:20;;;;;;;6.80;2.25;;;;;;;;;;4414057;32;20183;-74
2021/06/12 12:01:57;;;;;;;9.02;2.05;;;;;;;;;;4435042;32;20477;-74
2021/06/12 12:04:23;;;;;;;6.78;2.25;;;;;;;;;;4422171;32;20226;-74
2021/06/12 12:06:49;;;;;;;5.05;2.30;;;;;;;;;;4436591;32;20141;-75
2021/06/12 12:09:34;;;;;;;4.60;2.10;;;;;;;;;;4437314;32;20168;-74
2021/06/12 12:12:06;;;;;;;6.60;1.65;;;;;;;;;;4435834;32;20134;-75
2021/06/12 12:14:34;;;;;;;5.87;1.70;;;;;;;;;;4435376;32;20141;-76
2021/06/12 12:16:59;;;;;;;4.47;1.73;;;;;;;;;;4436851;32;20144;-76
2021/06/12 12:19:25;;;;;;;3.00;1.62;;;;;;;;;;4422327;32;20157;-77
2021/06/12 12:21:51;;;;;;;3.58;1.33;;;;;;;;;;4435046;32;20145;-76
2021/06/12 12:24:16;;;;;;;4.90;1.65;;;;;;;;;;4435776;32;20199;-76
2021/06/12 12:27:04;;;;;;;5.97;1.60;;;;;;;;;;4435601;32;20129;-76
2021/06/12 12:29:31;;;;;;;3.75;1.70;;;;;;;;;;4436860;32;20241;-77
2021/06/12 12:32:00;;;;;;;5.50;1.70;;;;;;;;;;4435897;32;20177;-77
2021/06/12 12:34:29;;;;;;;5.72;1.80;;;;;;;;;;4435444;32;20555;-74
2021/06/12 12:36:55;;;;;;;4.25;1.80;;;;;;;;;;4422343;32;20160;-76
2021/06/12 12:39:20;;;;;;;3.50;1.30;;;;;;;;;;4436192;32;20168;-76
2021/06/12 12:41:52;;;;;;;2.97;1.37;;;;;;;;;;4437705;32;20160;-77
2021/06/12 12:44:18;;;;;;;3.40;1.65;;;;;;;;;;4420461;32;20165;-76
2021/06/12 12:46:44;;;;;;;2.58;1.17;;;;;;;;;;4417036;32;20215;-77
2021/06/12 12:49:14;;;;;;;3.17;1.58;;;;;;;;;;4418437;32;20177;-76
2021/06/12 12:51:48;;;;;;;3.80;1.30;;;;;;;;;;4425325;32;20264;-77
2021/06/12 12:54:14;;;;;;;4.90;1.80;;;;;;;;;;4431018;32;20142;-76
2021/06/12 12:56:43;;;;;;;4.43;1.62;;;;;;;;;;4436039;32;20195;-74
2021/06/12 12:59:08;;;;;;;5.00;1.87;;;;;;;;;;4420463;32;20203;-75
2021/06/12 13:01:33;;;;;;;4.10;1.50;;;;;;;;;;4420966;32;20161;-75
2021/06/12 13:03:58;;;;;;;5.90;1.83;;;;;;;;;;4421982;32;20142;-78
2021/06/12 13:06:27;;;;;;;4.43;1.67;;;;;;;;;;4420956;32;20222;-77
2021/06/12 13:09:04;;;;;;;4.28;1.80;;;;;;;;;;4418870;32;20138;-74
2021/06/12 13:11:30;;;;;;;5.00;2.03;;;;;;;;;;4419516;32;20137;-77
2021/06/12 13:13:55;;;;;;;4.55;1.73;;;;;;;;;;4418282;32;20157;-76
2021/06/12 13:16:21;;;;;;;4.53;1.87;;;;;;;;;;4404762;32;20613;-74
2021/06/12 13:18:46;;;;;;;5.90;1.58;;;;;;;;;;4419354;32;20131;-75
2021/06/12 13:21:12;;;;;;;5.80;2.00;;;;;;;;;;4419346;32;20234;-75
2021/06/12 13:23:37;;;;;;;3.75;1.50;;;;;;;;;;4405422;32;20284;-76
2021/06/12 13:26:17;;;;;;;6.10;1.70;;;;;;;;;;4431376;32;20601;-75
2021/06/12 13:28:42;;;;;;;3.83;1.50;;;;;;;;;;4435741;32;20191;-77
2021/06/12 13:31:14;;;;;;;3.00;1.37;;;;;;;;;;4434381;32;20138;-76
2021/06/12 13:33:39;;;;;;;6.50;1.48;;;;;;;;;;4434360;32;20358;-76
2021/06/12 13:36:09;;;;;;;3.65;1.80;;;;;;;;;;4420505;32;20276;-75
2021/06/12 13:38:36;;;;;;;6.00;1.85;;;;;;;;;;4429688;32;20594;-75
2021/06/12 13:41:09;;;;;;;7.50;1.73;;;;;;;;;;4414399;32;20285;-75
2021/06/12 13:43:44;;;;;;;5.57;1.60;;;;;;;;;;4405193;32;20318;-75
2021/06/12 13:46:27;;;;;;;9.75;2.37;;;;;;;;;;4434573;32;20631;-75
2021/06/12 13:48:53;;;;;;;4.12;1.60;;;;;;;;;;4435377;32;20145;-76
2021/06/12 13:51:19;;;;;;;6.10;2.00;;;;;;;;;;4434782;32;20130;-74
2021/06/12 13:53:46;;;;;;;5.00;1.67;;;;;;;;;;4434636;32;20126;-76
2021/06/12 13:56:14;;;;;;;3.87;1.70;;;;;;;;;;4435036;32;20183;-75
2021/06/12 13:58:40;;;;;;;3.65;1.30;;;;;;;;;;4435395;32;20157;-75
2021/06/12 14:01:06;;;;;;;4.35;1.90;;;;;;;;;;4434572;32;20160;-76
2021/06/12 14:03:31;;;;;;;5.72;1.98;;;;;;;;;;4434182;32;20511;-76
2021/06/12 14:05:56;;;;;;;6.35;1.70;;;;;;;;;;4431604;32;20230;-76
2021/06/12 14:08:21;;;;;;;5.80;1.40;;;;;;;;;;4419499;32;20141;-76
2021/06/12 14:10:47;;;;;;;6.60;2.00;;;;;;;;;;4421007;32;20168;-76
2021/06/12 14:13:13;;;;;;;7.12;2.15;;;;;;;;;;4420912;32;20306;-76
2021/06/12 14:15:38;;;;;;;6.18;1.70;;;;;;;;;;4405110;32;20193;-76
2021/06/12 14:18:04;;;;;;;2.78;1.50;;;;;;;;;;4418718;32;20184;-76
2021/06/12 14:20:29;;;;;;;5.20;1.70;;;;;;;;;;4421226;32;20218;-74
2021/06/12 14:22:54;;;;;;;3.95;1.70;;;;;;;;;;4419771;32;20130;-75
2021/06/12 14:25:19;;;;;;;6.20;1.80;;;;;;;;;;4430070;32;20164;-76
2021/06/12 14:27:45;;;;;;;5.87;1.73;;;;;;;;;;4439387;32;20200;-75
2021/06/12 14:30:10;;;;;;;6.63;1.57;;;;;;;;;;4437999;32;20244;-76
2021/06/12 14:32:37;;;;;;;6.03;2.12;;;;;;;;;;4439154;32;20249;-75
2021/06/12 14:35:06;;;;;;;6.07;1.90;;;;;;;;;;4438318;32;20137;-75
2021/06/12 14:37:31;;;;;;;8.02;1.80;;;;;;;;;;4437429;32;20153;-76
2021/06/12 14:39:56;;;;;;;4.90;1.75;;;;;;;;;;4437652;32;20609;-75